IS64 weather

Kuntz Field
Gridley, Illinois, United States

Public forecast

Using degrees Fahrenheit for public forecast. Weather courtesy of forecast.io.

METAR (pilot weather report)

Closest report is Central Illinois Regional Airport at Bloomington-Normal, 14.9 nm (27.7 km) S. Retrieved 2019/09/16 06:56 UTC (1 hour ago):

KBMI 160656Z AUTO 19004KT 10SM CLR 20/19 A3006 RMK AO2 SLP174 T02000194

TAF (pilot weather forecast)

Closest forecast is Central Illinois Regional Airport at Bloomington-Normal, 14.9 nm (27.7 km) S. Retrieved 2019/09/16 06:24 UTC (2 hours ago):

TAF KBMI 160521Z 1606/1706 VRB04KT P6SM FEW040 FM160700 VRB05KT 4SM BR SKC TEMPO 1610/1614 2SM BR OVC006 FM161500 02007KT P6SM SCT015 FM170300 06007KT P6SM SCT250